sensor_id;sensor_type;location;lat;lon;timestamp;temperature;humidity
4354;DHT22;11018;51.258;6.806;2023-07-09T00:00:48;22.90;26.90
4354;DHT22;11018;51.258;6.806;2023-07-09T00:03:14;22.90;26.70
4354;DHT22;11018;51.258;6.806;2023-07-09T00:05:41;22.90;27.00
4354;DHT22;11018;51.258;6.806;2023-07-09T00:08:28;22.90;27.00
4354;DHT22;11018;51.258;6.806;2023-07-09T00:10:58;22.80;27.00
4354;DHT22;11018;51.258;6.806;2023-07-09T00:13:25;22.80;26.90
4354;DHT22;11018;51.258;6.806;2023-07-09T00:15:52;22.80;26.90
4354;DHT22;11018;51.258;6.806;2023-07-09T00:18:18;22.80;26.70
4354;DHT22;11018;51.258;6.806;2023-07-09T00:20:44;22.80;27.00
4354;DHT22;11018;51.258;6.806;2023-07-09T00:23:12;22.80;26.80
4354;DHT22;11018;51.258;6.806;2023-07-09T00:25:39;22.70;26.70
4354;DHT22;11018;51.258;6.806;2023-07-09T00:28:13;22.70;26.90
4354;DHT22;11018;51.258;6.806;2023-07-09T00:30:40;22.80;26.60
4354;DHT22;11018;51.258;6.806;2023-07-09T00:33:12;22.80;26.40
4354;DHT22;11018;51.258;6.806;2023-07-09T00:35:44;22.70;26.60
4354;DHT22;11018;51.258;6.806;2023-07-09T00:38:19;22.70;26.90
4354;DHT22;11018;51.258;6.806;2023-07-09T00:40:48;22.60;26.70
4354;DHT22;11018;51.258;6.806;2023-07-09T00:43:16;22.60;26.80
4354;DHT22;11018;51.258;6.806;2023-07-09T00:45:41;22.60;27.10
4354;DHT22;11018;51.258;6.806;2023-07-09T00:48:12;22.60;26.80
4354;DHT22;11018;51.258;6.806;2023-07-09T00:50:49;22.60;26.80
4354;DHT22;11018;51.258;6.806;2023-07-09T00:53:18;22.60;27.20
4354;DHT22;11018;51.258;6.806;2023-07-09T00:56:02;22.50;27.10
4354;DHT22;11018;51.258;6.806;2023-07-09T00:58:29;22.50;27.20
4354;DHT22;11018;51.258;6.806;2023-07-09T01:01:02;22.50;27.20
4354;DHT22;11018;51.258;6.806;2023-07-09T01:03:40;22.40;27.30
4354;DHT22;11018;51.258;6.806;2023-07-09T01:06:08;22.40;27.40
4354;DHT22;11018;51.258;6.806;2023-07-09T01:08:36;22.40;27.40
4354;DHT22;11018;51.258;6.806;2023-07-09T01:11:03;22.40;27.60
4354;DHT22;11018;51.258;6.806;2023-07-09T01:13:31;22.40;27.80
4354;DHT22;11018;51.258;6.806;2023-07-09T01:16:00;22.30;28.10
4354;DHT22;11018;51.258;6.806;2023-07-09T01:18:26;22.30;27.80
4354;DHT22;11018;51.258;6.806;2023-07-09T01:21:03;22.30;28.00
4354;DHT22;11018;51.258;6.806;2023-07-09T01:23:28;22.40;27.70
4354;DHT22;11018;51.258;6.806;2023-07-09T01:25:54;22.40;27.40
4354;DHT22;11018;51.258;6.806;2023-07-09T01:28:21;22.40;27.70
4354;DHT22;11018;51.258;6.806;2023-07-09T01:30:47;22.40;27.50
4354;DHT22;11018;51.258;6.806;2023-07-09T01:33:20;22.40;27.50
4354;DHT22;11018;51.258;6.806;2023-07-09T01:35:46;22.40;27.70
4354;DHT22;11018;51.258;6.806;2023-07-09T01:38:13;22.40;27.60
4354;DHT22;11018;51.258;6.806;2023-07-09T01:40:39;22.40;27.60
4354;DHT22;11018;51.258;6.806;2023-07-09T01:43:05;22.30;28.00
4354;DHT22;11018;51.258;6.806;2023-07-09T01:45:35;22.20;28.30
4354;DHT22;11018;51.258;6.806;2023-07-09T01:48:01;22.10;28.60
4354;DHT22;11018;51.258;6.806;2023-07-09T01:50:27;22.10;28.80
4354;DHT22;11018;51.258;6.806;2023-07-09T01:52:53;22.10;28.90
4354;DHT22;11018;51.258;6.806;2023-07-09T01:55:20;22.00;29.30
4354;DHT22;11018;51.258;6.806;2023-07-09T01:57:46;22.00;29.40
4354;DHT22;11018;51.258;6.806;2023-07-09T02:00:14;22.00;29.60
4354;DHT22;11018;51.258;6.806;2023-07-09T02:02:41;22.00;29.50
4354;DHT22;11018;51.258;6.806;2023-07-09T02:05:12;22.00;29.40
4354;DHT22;11018;51.258;6.806;2023-07-09T02:07:39;22.00;29.40
4354;DHT22;11018;51.258;6.806;2023-07-09T02:10:06;21.90;29.90
4354;DHT22;11018;51.258;6.806;2023-07-09T02:12:31;21.90;30.40
4354;DHT22;11018;51.258;6.806;2023-07-09T02:14:57;21.80;30.60
4354;DHT22;11018;51.258;6.806;2023-07-09T02:17:22;21.80;30.80
4354;DHT22;11018;51.258;6.806;2023-07-09T02:19:48;21.70;30.90
4354;DHT22;11018;51.258;6.806;2023-07-09T02:22:13;21.70;31.00
4354;DHT22;11018;51.258;6.806;2023-07-09T02:24:39;21.80;30.70
4354;DHT22;11018;51.258;6.806;2023-07-09T02:27:06;21.80;30.70
4354;DHT22;11018;51.258;6.806;2023-07-09T02:29:33;22.00;30.00
4354;DHT22;11018;51.258;6.806;2023-07-09T02:32:01;22.00;30.00
4354;DHT22;11018;51.258;6.806;2023-07-09T02:34:28;22.00;30.00
4354;DHT22;11018;51.258;6.806;2023-07-09T02:36:55;22.00;30.00
4354;DHT22;11018;51.258;6.806;2023-07-09T02:39:22;22.00;29.90
4354;DHT22;11018;51.258;6.806;2023-07-09T02:41:48;22.00;30.00
4354;DHT22;11018;51.258;6.806;2023-07-09T02:44:14;21.90;30.10
4354;DHT22;11018;51.258;6.806;2023-07-09T02:46:40;21.90;30.40
4354;DHT22;11018;51.258;6.806;2023-07-09T02:49:06;21.90;30.50
4354;DHT22;11018;51.258;6.806;2023-07-09T02:51:33;21.90;30.40
4354;DHT22;11018;51.258;6.806;2023-07-09T02:54:00;21.90;30.50
4354;DHT22;11018;51.258;6.806;2023-07-09T02:56:27;21.90;30.50
4354;DHT22;11018;51.258;6.806;2023-07-09T02:58:53;21.90;30.70
4354;DHT22;11018;51.258;6.806;2023-07-09T03:01:18;21.80;30.80
4354;DHT22;11018;51.258;6.806;2023-07-09T03:03:56;21.80;31.00
4354;DHT22;11018;51.258;6.806;2023-07-09T03:06:23;21.80;31.20
4354;DHT22;11018;51.258;6.806;2023-07-09T03:08:50;21.70;31.60
4354;DHT22;11018;51.258;6.806;2023-07-09T03:11:16;21.70;31.50
4354;DHT22;11018;51.258;6.806;2023-07-09T03:13:42;21.70;31.70
4354;DHT22;11018;51.258;6.806;2023-07-09T03:16:08;21.70;31.60
4354;DHT22;11018;51.258;6.806;2023-07-09T03:18:33;21.70;31.80
4354;DHT22;11018;51.258;6.806;2023-07-09T03:20:59;21.70;31.60
4354;DHT22;11018;51.258;6.806;2023-07-09T03:23:25;21.70;31.80
4354;DHT22;11018;51.258;6.806;2023-07-09T03:25:50;21.80;31.50
4354;DHT22;11018;51.258;6.806;2023-07-09T03:28:16;21.70;31.90
4354;DHT22;11018;51.258;6.806;2023-07-09T03:30:46;21.60;32.60
4354;DHT22;11018;51.258;6.806;2023-07-09T03:33:13;21.60;31.90
4354;DHT22;11018;51.258;6.806;2023-07-09T03:35:40;21.60;32.20
4354;DHT22;11018;51.258;6.806;2023-07-09T03:38:06;21.50;32.50
4354;DHT22;11018;51.258;6.806;2023-07-09T03:40:33;21.50;32.80
4354;DHT22;11018;51.258;6.806;2023-07-09T03:42:59;21.50;32.90
4354;DHT22;11018;51.258;6.806;2023-07-09T03:45:24;21.40;33.00
4354;DHT22;11018;51.258;6.806;2023-07-09T03:47:50;21.40;33.10
4354;DHT22;11018;51.258;6.806;2023-07-09T03:50:16;21.40;33.20
4354;DHT22;11018;51.258;6.806;2023-07-09T03:52:41;21.40;33.20
4354;DHT22;11018;51.258;6.806;2023-07-09T03:55:07;21.40;33.40
4354;DHT22;11018;51.258;6.806;2023-07-09T03:57:34;21.50;33.40
4354;DHT22;11018;51.258;6.806;2023-07-09T04:00:01;21.50;33.20
4354;DHT22;11018;51.258;6.806;2023-07-09T04:02:27;21.60;33.00
4354;DHT22;11018;51.258;6.806;2023-07-09T04:04:53;21.70;32.90
4354;DHT22;11018;51.258;6.806;2023-07-09T04:07:19;21.70;32.70
4354;DHT22;11018;51.258;6.806;2023-07-09T04:09:45;21.70;32.60
4354;DHT22;11018;51.258;6.806;2023-07-09T04:12:11;21.80;32.40
4354;DHT22;11018;51.258;6.806;2023-07-09T04:14:36;21.80;32.10
4354;DHT22;11018;51.258;6.806;2023-07-09T04:17:03;21.80;32.10
4354;DHT22;11018;51.258;6.806;2023-07-09T04:19:28;21.90;31.50
4354;DHT22;11018;51.258;6.806;2023-07-09T04:21:54;22.00;31.50
4354;DHT22;11018;51.258;6.806;2023-07-09T04:24:20;22.00;31.50
4354;DHT22;11018;51.258;6.806;2023-07-09T04:26:46;22.10;31.20
4354;DHT22;11018;51.258;6.806;2023-07-09T04:29:13;22.10;31.50
4354;DHT22;11018;51.258;6.806;2023-07-09T04:31:40;22.30;30.50
4354;DHT22;11018;51.258;6.806;2023-07-09T04:34:07;22.30;30.40
4354;DHT22;11018;51.258;6.806;2023-07-09T04:36:33;22.30;30.10
4354;DHT22;11018;51.258;6.806;2023-07-09T04:38:59;22.40;29.70
4354;DHT22;11018;51.258;6.806;2023-07-09T04:41:25;22.50;29.50
4354;DHT22;11018;51.258;6.806;2023-07-09T04:43:51;22.60;29.10
4354;DHT22;11018;51.258;6.806;2023-07-09T04:46:16;22.70;28.60
4354;DHT22;11018;51.258;6.806;2023-07-09T04:48:42;22.70;28.40
4354;DHT22;11018;51.258;6.806;2023-07-09T04:51:08;22.80;27.80
4354;DHT22;11018;51.258;6.806;2023-07-09T04:53:34;23.00;27.50
4354;DHT22;11018;51.258;6.806;2023-07-09T04:55:59;23.10;27.20
4354;DHT22;11018;51.258;6.806;2023-07-09T04:58:25;23.10;27.30
4354;DHT22;11018;51.258;6.806;2023-07-09T05:00:50;23.20;26.70
4354;DHT22;11018;51.258;6.806;2023-07-09T05:03:18;23.20;27.20
4354;DHT22;11018;51.258;6.806;2023-07-09T05:05:44;23.30;26.40
4354;DHT22;11018;51.258;6.806;2023-07-09T05:08:11;23.30;26.20
4354;DHT22;11018;51.258;6.806;2023-07-09T05:10:49;23.50;26.10
4354;DHT22;11018;51.258;6.806;2023-07-09T05:13:16;23.50;26.00
4354;DHT22;11018;51.258;6.806;2023-07-09T05:15:43;23.50;25.80
4354;DHT22;11018;51.258;6.806;2023-07-09T05:18:10;23.70;25.70
4354;DHT22;11018;51.258;6.806;2023-07-09T05:20:36;23.60;25.50
4354;DHT22;11018;51.258;6.806;2023-07-09T05:23:02;23.80;25.40
4354;DHT22;11018;51.258;6.806;2023-07-09T05:25:27;23.80;24.90
4354;DHT22;11018;51.258;6.806;2023-07-09T05:27:53;23.90;24.80
4354;DHT22;11018;51.258;6.806;2023-07-09T05:30:19;24.00;24.50
4354;DHT22;11018;51.258;6.806;2023-07-09T05:32:46;24.10;24.50
4354;DHT22;11018;51.258;6.806;2023-07-09T05:35:12;24.10;24.30
4354;DHT22;11018;51.258;6.806;2023-07-09T05:37:39;24.20;24.10
4354;DHT22;11018;51.258;6.806;2023-07-09T05:40:08;24.30;23.80
4354;DHT22;11018;51.258;6.806;2023-07-09T05:42:34;24.30;23.90
4354;DHT22;11018;51.258;6.806;2023-07-09T05:45:00;24.40;23.70
4354;DHT22;11018;51.258;6.806;2023-07-09T05:47:26;24.50;23.60
4354;DHT22;11018;51.258;6.806;2023-07-09T05:49:52;24.60;23.20
4354;DHT22;11018;51.258;6.806;2023-07-09T05:52:19;24.70;23.30
4354;DHT22;11018;51.258;6.806;2023-07-09T05:54:45;24.80;22.60
4354;DHT22;11018;51.258;6.806;2023-07-09T05:57:11;24.80;22.70
4354;DHT22;11018;51.258;6.806;2023-07-09T05:59:36;24.90;22.20
4354;DHT22;11018;51.258;6.806;2023-07-09T06:02:03;25.00;22.30
4354;DHT22;11018;51.258;6.806;2023-07-09T06:04:29;25.00;22.10
4354;DHT22;11018;51.258;6.806;2023-07-09T06:07:04;25.00;22.10
4354;DHT22;11018;51.258;6.806;2023-07-09T06:09:30;25.20;21.80
4354;DHT22;11018;51.258;6.806;2023-07-09T06:11:56;25.20;21.60
4354;DHT22;11018;51.258;6.806;2023-07-09T06:14:21;25.30;21.70
4354;DHT22;11018;51.258;6.806;2023-07-09T06:16:47;25.30;21.70
4354;DHT22;11018;51.258;6.806;2023-07-09T06:19:12;25.40;21.70
4354;DHT22;11018;51.258;6.806;2023-07-09T06:21:39;25.50;21.00
4354;DHT22;11018;51.258;6.806;2023-07-09T06:24:06;25.60;21.10
4354;DHT22;11018;51.258;6.806;2023-07-09T06:26:32;25.60;21.00
4354;DHT22;11018;51.258;6.806;2023-07-09T06:28:58;25.80;20.50
4354;DHT22;11018;51.258;6.806;2023-07-09T06:31:23;25.90;20.00
4354;DHT22;11018;51.258;6.806;2023-07-09T06:33:50;25.80;20.10
4354;DHT22;11018;51.258;6.806;2023-07-09T06:36:16;25.90;20.00
4354;DHT22;11018;51.258;6.806;2023-07-09T06:38:42;26.00;20.40
4354;DHT22;11018;51.258;6.806;2023-07-09T06:41:08;26.10;20.20
4354;DHT22;11018;51.258;6.806;2023-07-09T06:43:34;26.10;20.00
4354;DHT22;11018;51.258;6.806;2023-07-09T06:46:00;26.20;19.50
4354;DHT22;11018;51.258;6.806;2023-07-09T06:48:27;26.30;19.60
4354;DHT22;11018;51.258;6.806;2023-07-09T06:50:54;26.50;19.50
4354;DHT22;11018;51.258;6.806;2023-07-09T06:53:21;26.60;18.90
4354;DHT22;11018;51.258;6.806;2023-07-09T06:55:47;26.60;19.10
4354;DHT22;11018;51.258;6.806;2023-07-09T06:58:15;26.70;19.10
4354;DHT22;11018;51.258;6.806;2023-07-09T07:00:41;26.70;19.00
4354;DHT22;11018;51.258;6.806;2023-07-09T07:03:06;26.90;18.50
4354;DHT22;11018;51.258;6.806;2023-07-09T07:05:32;27.00;18.80
4354;DHT22;11018;51.258;6.806;2023-07-09T07:07:59;27.00;18.60
4354;DHT22;11018;51.258;6.806;2023-07-09T07:10:25;27.00;18.60
4354;DHT22;11018;51.258;6.806;2023-07-09T07:12:52;27.20;18.40
4354;DHT22;11018;51.258;6.806;2023-07-09T07:15:18;27.30;18.20
4354;DHT22;11018;51.258;6.806;2023-07-09T07:17:44;27.40;18.40
4354;DHT22;11018;51.258;6.806;2023-07-09T07:20:12;27.40;18.20
4354;DHT22;11018;51.258;6.806;2023-07-09T07:22:38;27.50;18.10
4354;DHT22;11018;51.258;6.806;2023-07-09T07:25:05;27.60;17.90
4354;DHT22;11018;51.258;6.806;2023-07-09T07:27:31;27.70;17.50
4354;DHT22;11018;51.258;6.806;2023-07-09T07:29:56;27.80;17.30
4354;DHT22;11018;51.258;6.806;2023-07-09T07:32:23;27.90;17.40
4354;DHT22;11018;51.258;6.806;2023-07-09T07:34:49;28.00;17.40
4354;DHT22;11018;51.258;6.806;2023-07-09T07:37:17;28.10;17.30
4354;DHT22;11018;51.258;6.806;2023-07-09T07:39:43;28.10;16.90
4354;DHT22;11018;51.258;6.806;2023-07-09T07:42:08;28.20;16.50
4354;DHT22;11018;51.258;6.806;2023-07-09T07:44:34;28.20;16.50
4354;DHT22;11018;51.258;6.806;2023-07-09T07:46:59;28.30;16.50
4354;DHT22;11018;51.258;6.806;2023-07-09T07:49:25;28.40;16.10
4354;DHT22;11018;51.258;6.806;2023-07-09T07:51:51;28.60;16.20
4354;DHT22;11018;51.258;6.806;2023-07-09T07:54:16;28.70;15.60
4354;DHT22;11018;51.258;6.806;2023-07-09T07:56:43;28.80;15.30
4354;DHT22;11018;51.258;6.806;2023-07-09T07:59:09;28.80;15.30
4354;DHT22;11018;51.258;6.806;2023-07-09T08:01:34;28.80;15.30
4354;DHT22;11018;51.258;6.806;2023-07-09T08:04:02;28.90;15.20
4354;DHT22;11018;51.258;6.806;2023-07-09T08:06:27;29.00;15.50
4354;DHT22;11018;51.258;6.806;2023-07-09T08:08:53;29.00;14.90
4354;DHT22;11018;51.258;6.806;2023-07-09T08:11:19;29.10;15.10
4354;DHT22;11018;51.258;6.806;2023-07-09T08:13:44;29.20;14.80
4354;DHT22;11018;51.258;6.806;2023-07-09T08:16:10;29.20;14.70
4354;DHT22;11018;51.258;6.806;2023-07-09T08:18:37;29.40;14.80
4354;DHT22;11018;51.258;6.806;2023-07-09T08:21:03;29.50;14.30
4354;DHT22;11018;51.258;6.806;2023-07-09T08:23:29;29.50;14.30
4354;DHT22;11018;51.258;6.806;2023-07-09T08:25:59;29.50;14.50
4354;DHT22;11018;51.258;6.806;2023-07-09T08:28:27;29.50;14.90
4354;DHT22;11018;51.258;6.806;2023-07-09T08:30:53;29.60;14.70
4354;DHT22;11018;51.258;6.806;2023-07-09T08:33:19;29.70;14.50
4354;DHT22;11018;51.258;6.806;2023-07-09T08:35:45;29.70;14.60
4354;DHT22;11018;51.258;6.806;2023-07-09T08:38:10;29.80;14.80
4354;DHT22;11018;51.258;6.806;2023-07-09T08:40:39;29.90;14.40
4354;DHT22;11018;51.258;6.806;2023-07-09T08:43:16;30.10;14.20
4354;DHT22;11018;51.258;6.806;2023-07-09T08:45:50;30.30;14.90
4354;DHT22;11018;51.258;6.806;2023-07-09T08:48:32;30.40;14.10
4354;DHT22;11018;51.258;6.806;2023-07-09T08:51:02;30.40;14.20
4354;DHT22;11018;51.258;6.806;2023-07-09T08:56:22;30.50;13.70
4354;DHT22;11018;51.258;6.806;2023-07-09T08:58:49;30.50;14.20
4354;DHT22;11018;51.258;6.806;2023-07-09T09:01:24;30.70;14.00
4354;DHT22;11018;51.258;6.806;2023-07-09T09:03:57;30.80;13.10
4354;DHT22;11018;51.258;6.806;2023-07-09T09:06:29;30.80;13.30
4354;DHT22;11018;51.258;6.806;2023-07-09T09:09:21;30.90;13.10
4354;DHT22;11018;51.258;6.806;2023-07-09T09:14:37;31.30;13.40
4354;DHT22;11018;51.258;6.806;2023-07-09T09:17:12;31.40;13.40
4354;DHT22;11018;51.258;6.806;2023-07-09T09:19:46;31.50;12.60
4354;DHT22;11018;51.258;6.806;2023-07-09T09:22:17;31.40;12.20
4354;DHT22;11018;51.258;6.806;2023-07-09T09:25:01;31.50;12.30
4354;DHT22;11018;51.258;6.806;2023-07-09T09:27:28;31.60;11.90
4354;DHT22;11018;51.258;6.806;2023-07-09T09:29:53;31.70;11.90
4354;DHT22;11018;51.258;6.806;2023-07-09T09:32:28;31.90;11.80
4354;DHT22;11018;51.258;6.806;2023-07-09T09:34:54;32.00;11.30
4354;DHT22;11018;51.258;6.806;2023-07-09T09:37:31;32.00;11.40
4354;DHT22;11018;51.258;6.806;2023-07-09T09:39:59;32.00;11.90
4354;DHT22;11018;51.258;6.806;2023-07-09T09:42:25;32.20;10.10
4354;DHT22;11018;51.258;6.806;2023-07-09T09:44:53;32.10;10.40
4354;DHT22;11018;51.258;6.806;2023-07-09T09:47:19;32.20;10.70
4354;DHT22;11018;51.258;6.806;2023-07-09T09:49:45;32.20;10.30
4354;DHT22;11018;51.258;6.806;2023-07-09T09:52:16;32.20;10.60
4354;DHT22;11018;51.258;6.806;2023-07-09T09:55:20;32.40;9.90
4354;DHT22;11018;51.258;6.806;2023-07-09T09:57:50;32.60;10.10
4354;DHT22;11018;51.258;6.806;2023-07-09T10:00:17;32.90;9.20
4354;DHT22;11018;51.258;6.806;2023-07-09T10:02:43;33.00;9.40
4354;DHT22;11018;51.258;6.806;2023-07-09T10:05:21;33.00;9.30
4354;DHT22;11018;51.258;6.806;2023-07-09T10:08:08;33.00;8.70
4354;DHT22;11018;51.258;6.806;2023-07-09T10:10:34;33.00;8.30
4354;DHT22;11018;51.258;6.806;2023-07-09T10:13:29;33.00;8.30
4354;DHT22;11018;51.258;6.806;2023-07-09T10:19:04;33.10;8.00
4354;DHT22;11018;51.258;6.806;2023-07-09T10:21:41;33.30;7.60
4354;DHT22;11018;51.258;6.806;2023-07-09T10:24:25;33.50;7.00
4354;DHT22;11018;51.258;6.806;2023-07-09T10:30:13;33.70;6.40
4354;DHT22;11018;51.258;6.806;2023-07-09T10:32:55;33.70;6.40
4354;DHT22;11018;51.258;6.806;2023-07-09T10:35:33;33.70;6.20
4354;DHT22;11018;51.258;6.806;2023-07-09T10:40:48;33.80;6.40
4354;DHT22;11018;51.258;6.806;2023-07-09T10:43:38;33.80;5.70
4354;DHT22;11018;51.258;6.806;2023-07-09T10:46:14;33.80;5.80
4354;DHT22;11018;51.258;6.806;2023-07-09T10:48:44;33.80;6.20
4354;DHT22;11018;51.258;6.806;2023-07-09T10:51:23;33.90;4.80
4354;DHT22;11018;51.258;6.806;2023-07-09T10:54:05;34.00;4.20
4354;DHT22;11018;51.258;6.806;2023-07-09T10:56:35;33.90;4.20
4354;DHT22;11018;51.258;6.806;2023-07-09T11:01:40;34.10;5.20
4354;DHT22;11018;51.258;6.806;2023-07-09T11:07:00;34.20;4.90
4354;DHT22;11018;51.258;6.806;2023-07-09T11:09:31;34.30;4.60
4354;DHT22;11018;51.258;6.806;2023-07-09T11:12:02;34.20;3.60
4354;DHT22;11018;51.258;6.806;2023-07-09T11:14:41;34.30;2.60
4354;DHT22;11018;51.258;6.806;2023-07-09T11:17:14;34.40;2.70
4354;DHT22;11018;51.258;6.806;2023-07-09T11:19:46;34.50;2.70
4354;DHT22;11018;51.258;6.806;2023-07-09T11:22:26;34.60;2.80
4354;DHT22;11018;51.258;6.806;2023-07-09T11:25:05;34.60;2.30
4354;DHT22;11018;51.258;6.806;2023-07-09T11:27:31;34.80;1.60
4354;DHT22;11018;51.258;6.806;2023-07-09T11:30:24;34.80;1.20
4354;DHT22;11018;51.258;6.806;2023-07-09T11:33:00;34.90;1.80
4354;DHT22;11018;51.258;6.806;2023-07-09T11:38:42;34.90;2.30
4354;DHT22;11018;51.258;6.806;2023-07-09T11:44:00;35.20;2.80
4354;DHT22;11018;51.258;6.806;2023-07-09T11:46:28;35.40;2.40
4354;DHT22;11018;51.258;6.806;2023-07-09T11:48:55;35.40;2.10
4354;DHT22;11018;51.258;6.806;2023-07-09T11:51:49;35.40;1.90
4354;DHT22;11018;51.258;6.806;2023-07-09T11:54:14;35.50;1.80
4354;DHT22;11018;51.258;6.806;2023-07-09T11:56:40;35.70;2.20
4354;DHT22;11018;51.258;6.806;2023-07-09T11:59:13;35.70;1.40
4354;DHT22;11018;51.258;6.806;2023-07-09T12:01:43;35.80;1.60
4354;DHT22;11018;51.258;6.806;2023-07-09T12:04:14;36.10;2.00
4354;DHT22;11018;51.258;6.806;2023-07-09T12:06:41;36.40;1.20
4354;DHT22;11018;51.258;6.806;2023-07-09T12:09:12;36.50;1.20
4354;DHT22;11018;51.258;6.806;2023-07-09T12:11:47;36.80;1.30
4354;DHT22;11018;51.258;6.806;2023-07-09T12:14:16;37.10;1.00
4354;DHT22;11018;51.258;6.806;2023-07-09T12:16:45;37.00;1.00
4354;DHT22;11018;51.258;6.806;2023-07-09T12:19:16;37.10;1.00
4354;DHT22;11018;51.258;6.806;2023-07-09T12:21:46;37.20;1.00
4354;DHT22;11018;51.258;6.806;2023-07-09T12:24:28;37.40;1.00
4354;DHT22;11018;51.258;6.806;2023-07-09T12:27:01;37.20;1.00
4354;DHT22;11018;51.258;6.806;2023-07-09T12:29:29;37.50;1.00
4354;DHT22;11018;51.258;6.806;2023-07-09T12:31:58;37.80;1.00
4354;DHT22;11018;51.258;6.806;2023-07-09T12:34:24;38.40;1.00
4354;DHT22;11018;51.258;6.806;2023-07-09T12:36:52;38.60;1.00
4354;DHT22;11018;51.258;6.806;2023-07-09T12:39:24;38.60;1.00
4354;DHT22;11018;51.258;6.806;2023-07-09T12:41:54;38.70;1.00
4354;DHT22;11018;51.258;6.806;2023-07-09T12:44:22;38.50;1.00
4354;DHT22;11018;51.258;6.806;2023-07-09T12:46:49;38.40;1.00
4354;DHT22;11018;51.258;6.806;2023-07-09T12:49:27;38.50;1.00
4354;DHT22;11018;51.258;6.806;2023-07-09T12:52:02;38.40;1.00
4354;DHT22;11018;51.258;6.806;2023-07-09T12:54:29;38.10;1.00
4354;DHT22;11018;51.258;6.806;2023-07-09T12:56:56;37.70;1.00
4354;DHT22;11018;51.258;6.806;2023-07-09T12:59:35;37.30;1.00
4354;DHT22;11018;51.258;6.806;2023-07-09T13:02:22;37.00;1.00
4354;DHT22;11018;51.258;6.806;2023-07-09T13:04:49;36.50;1.00
4354;DHT22;11018;51.258;6.806;2023-07-09T13:09:54;36.00;1.00
4354;DHT22;11018;51.258;6.806;2023-07-09T13:12:29;35.70;1.70
4354;DHT22;11018;51.258;6.806;2023-07-09T13:14:55;35.40;2.80
4354;DHT22;11018;51.258;6.806;2023-07-09T13:17:21;35.40;3.30
4354;DHT22;11018;51.258;6.806;2023-07-09T13:19:47;35.00;3.90
4354;DHT22;11018;51.258;6.806;2023-07-09T13:22:17;34.70;3.10
4354;DHT22;11018;51.258;6.806;2023-07-09T13:24:45;34.60;2.90
4354;DHT22;11018;51.258;6.806;2023-07-09T13:27:14;34.70;3.10
4354;DHT22;11018;51.258;6.806;2023-07-09T13:29:40;34.40;3.00
4354;DHT22;11018;51.258;6.806;2023-07-09T13:32:12;34.10;2.30
4354;DHT22;11018;51.258;6.806;2023-07-09T13:34:38;33.80;3.20
4354;DHT22;11018;51.258;6.806;2023-07-09T13:37:08;33.60;3.20
4354;DHT22;11018;51.258;6.806;2023-07-09T13:39:34;33.40;3.80
4354;DHT22;11018;51.258;6.806;2023-07-09T13:42:00;33.30;3.50
4354;DHT22;11018;51.258;6.806;2023-07-09T13:44:28;33.30;3.20
4354;DHT22;11018;51.258;6.806;2023-07-09T13:46:56;33.30;3.40
4354;DHT22;11018;51.258;6.806;2023-07-09T13:49:24;33.10;3.30
4354;DHT22;11018;51.258;6.806;2023-07-09T13:51:52;32.90;3.40
4354;DHT22;11018;51.258;6.806;2023-07-09T13:54:21;32.90;3.40
4354;DHT22;11018;51.258;6.806;2023-07-09T13:56:47;32.80;6.60
4354;DHT22;11018;51.258;6.806;2023-07-09T13:59:20;32.40;7.50
4354;DHT22;11018;51.258;6.806;2023-07-09T14:01:46;32.20;8.10
4354;DHT22;11018;51.258;6.806;2023-07-09T14:04:14;32.00;8.60
4354;DHT22;11018;51.258;6.806;2023-07-09T14:06:40;31.80;8.90
4354;DHT22;11018;51.258;6.806;2023-07-09T14:09:08;31.60;9.40
4354;DHT22;11018;51.258;6.806;2023-07-09T14:11:34;31.40;11.10
4354;DHT22;11018;51.258;6.806;2023-07-09T14:14:00;30.80;12.70
4354;DHT22;11018;51.258;6.806;2023-07-09T14:16:25;30.20;15.70
4354;DHT22;11018;51.258;6.806;2023-07-09T14:18:51;29.70;17.70
4354;DHT22;11018;51.258;6.806;2023-07-09T14:21:22;28.10;29.30
4354;DHT22;11018;51.258;6.806;2023-07-09T14:23:48;25.90;40.00
4354;DHT22;11018;51.258;6.806;2023-07-09T14:26:14;25.00;35.40
4354;DHT22;11018;51.258;6.806;2023-07-09T14:28:40;24.50;42.60
4354;DHT22;11018;51.258;6.806;2023-07-09T14:31:22;24.30;34.80
4354;DHT22;11018;51.258;6.806;2023-07-09T14:33:48;24.20;40.50
4354;DHT22;11018;51.258;6.806;2023-07-09T14:36:14;23.90;40.40
4354;DHT22;11018;51.258;6.806;2023-07-09T14:38:40;24.30;38.40
4354;DHT22;11018;51.258;6.806;2023-07-09T14:41:23;24.30;34.50
4354;DHT22;11018;51.258;6.806;2023-07-09T14:43:50;24.70;32.80
4354;DHT22;11018;51.258;6.806;2023-07-09T14:46:16;24.90;32.80
4354;DHT22;11018;51.258;6.806;2023-07-09T14:48:41;25.00;33.80
4354;DHT22;11018;51.258;6.806;2023-07-09T14:51:16;25.00;36.10
4354;DHT22;11018;51.258;6.806;2023-07-09T14:53:43;24.90;37.30
4354;DHT22;11018;51.258;6.806;2023-07-09T14:56:11;24.90;41.10
4354;DHT22;11018;51.258;6.806;2023-07-09T14:58:38;24.90;44.10
4354;DHT22;11018;51.258;6.806;2023-07-09T15:01:03;24.80;46.60
4354;DHT22;11018;51.258;6.806;2023-07-09T15:03:29;24.80;50.90
4354;DHT22;11018;51.258;6.806;2023-07-09T15:05:55;24.30;56.70
4354;DHT22;11018;51.258;6.806;2023-07-09T15:08:23;24.10;62.20
4354;DHT22;11018;51.258;6.806;2023-07-09T15:10:51;23.90;62.00
4354;DHT22;11018;51.258;6.806;2023-07-09T15:15:44;23.60;66.70
4354;DHT22;11018;51.258;6.806;2023-07-09T15:18:12;23.50;68.30
4354;DHT22;11018;51.258;6.806;2023-07-09T15:20:40;23.20;64.50
4354;DHT22;11018;51.258;6.806;2023-07-09T15:23:09;23.20;67.00
4354;DHT22;11018;51.258;6.806;2023-07-09T15:25:35;23.20;66.10
4354;DHT22;11018;51.258;6.806;2023-07-09T15:28:00;23.20;66.70
4354;DHT22;11018;51.258;6.806;2023-07-09T15:30:29;23.10;65.00
4354;DHT22;11018;51.258;6.806;2023-07-09T15:33:00;22.90;67.90
4354;DHT22;11018;51.258;6.806;2023-07-09T15:35:31;22.90;69.50
4354;DHT22;11018;51.258;6.806;2023-07-09T15:37:57;22.80;72.40
4354;DHT22;11018;51.258;6.806;2023-07-09T15:40:25;22.70;76.20
4354;DHT22;11018;51.258;6.806;2023-07-09T15:42:57;22.60;78.20
4354;DHT22;11018;51.258;6.806;2023-07-09T15:45:23;22.70;78.00
4354;DHT22;11018;51.258;6.806;2023-07-09T15:47:50;22.70;80.40
4354;DHT22;11018;51.258;6.806;2023-07-09T15:52:44;22.80;76.50
4354;DHT22;11018;51.258;6.806;2023-07-09T15:55:15;22.80;80.70
4354;DHT22;11018;51.258;6.806;2023-07-09T15:57:41;22.80;80.30
4354;DHT22;11018;51.258;6.806;2023-07-09T16:00:33;22.80;82.30
4354;DHT22;11018;51.258;6.806;2023-07-09T16:03:00;22.90;83.10
4354;DHT22;11018;51.258;6.806;2023-07-09T16:05:29;23.20;81.60
4354;DHT22;11018;51.258;6.806;2023-07-09T16:07:58;23.50;73.10
4354;DHT22;11018;51.258;6.806;2023-07-09T16:10:26;23.90;66.70
4354;DHT22;11018;51.258;6.806;2023-07-09T16:12:53;24.20;64.50
4354;DHT22;11018;51.258;6.806;2023-07-09T16:15:21;24.70;59.80
4354;DHT22;11018;51.258;6.806;2023-07-09T16:17:47;25.10;53.50
4354;DHT22;11018;51.258;6.806;2023-07-09T16:20:21;25.40;51.50
4354;DHT22;11018;51.258;6.806;2023-07-09T16:22:51;25.40;53.60
4354;DHT22;11018;51.258;6.806;2023-07-09T16:25:23;25.50;53.80
4354;DHT22;11018;51.258;6.806;2023-07-09T16:27:50;25.70;48.80
4354;DHT22;11018;51.258;6.806;2023-07-09T16:30:21;25.70;48.20
4354;DHT22;11018;51.258;6.806;2023-07-09T16:32:48;25.60;50.20